Nevsehir Kapadokya International Airport Nevsehir TR
ICAO: LTAZ
IATA: NAV
Category: Large
Scheduled Services: No

Elevation: 3100 ft
TransAlt. 10000 ft.

Airport Communications:
ESENBOGA APP:119.1
TWR:35.892
TWR:119

LTAZ Zoom In..

If you have problems with the map follow the link
https://www.worldairports.se/pages/airport.php?
ICAO=LTAZ

Runways:

(A) RW 11 length 9843 ft width 148 ft
ILS 110.70 / hdg 113

(B) RW 29 length 9843 ft width 148 ft
---- / hdg 293

Location; LTAZ
Day. 17 / Time. 03.20 Zulu
* QNH: 1015
* Temperature: 07° c. 44.6°f.
* Wind from: 140° Speed 09 kn.
Dewpoint: 03° c.
Visibility: 10 km or more.
Clouds: Scattered 4000 ft.
Clouds: Broken 1000 ft.

LTAZ 170320Z 14009KT 9999 SCT040 BKN100 07/03 Q1015


Wind From 140°
Speed 09 kn.

 
 
jpsmedia.com for Web Design worldairports.se 2018   terms of use